<?xml version="1.0" encoding="UTF-8" standalone="no" ?><gpx xmlns="http://www.topografix.com/GPX/1/1" xmlns:gpxx="http://www.garmin.com/xmlschemas/GpxExtensions/v3" xmlns:wptx1="http://www.garmin.com/xmlschemas/WaypointExtension/v1" xmlns:gpxtpx="http://www.garmin.com/xmlschemas/TrackPointExtension/v1" creator="Dakota 20" version="1.1" xmlns:xsi="http://www.w3.org/2001/XMLSchema-instance" xsi:schemaLocation="http://www.topografix.com/GPX/1/1 http://www.topografix.com/GPX/1/1/gpx.xsd http://www.garmin.com/xmlschemas/GpxExtensions/v3 http://www8.garmin.com/xmlschemas/GpxExtensionsv3.xsd http://www.garmin.com/xmlschemas/WaypointExtension/v1 http://www8.garmin.com/xmlschemas/WaypointExtensionv1.xsd http://www.garmin.com/xmlschemas/TrackPointExtension/v1 http://www.garmin.com/xmlschemas/TrackPointExtensionv1.xsd"><metadata><link href="http://www.garmin.com"><text>Garmin International</text></link><time>2012-01-04T17:48:18Z</time></metadata><trk><name>Current Track: 04 JAN 2012 09:56</name><extensions><gpxx:TrackExtension><gpxx:DisplayColor>Black</gpxx:DisplayColor></gpxx:TrackExtension></extensions><trkseg><trkpt lat="52.0022139139" lon="-1.8612736836"><ele>213.07</ele><time>2012-01-04T09:56:32Z</time></trkpt><trkpt lat="52.0022322703" lon="-1.8612631224"><ele>215.95</ele><time>2012-01-04T09:56:36Z</time></trkpt><trkpt lat="52.0022476930" lon="-1.8612555787"><ele>221.72</ele><time>2012-01-04T09:56:49Z</time></trkpt><trkpt lat="52.0022521354" lon="-1.8612579256"><ele>217.40</ele><time>2012-01-04T09:56:51Z</time></trkpt><trkpt lat="52.0022653788" lon="-1.8612797186"><ele>220.28</ele><time>2012-01-04T09:57:02Z</time></trkpt><trkpt lat="52.0022672229" lon="-1.8612832390"><ele>222.20</ele><time>2012-01-04T09:57:18Z</time></trkpt><trkpt lat="52.0022672229" lon="-1.8612832390"><ele>223.64</ele><time>2012-01-04T09:57:41Z</time></trkpt><trkpt lat="52.0022267383" lon="-1.8612581771"><ele>223.16</ele><time>2012-01-04T09:57:59Z</time></trkpt><trkpt lat="52.0021553244" lon="-1.8610922154"><ele>224.61</ele><time>2012-01-04T09:58:10Z</time></trkpt><trkpt lat="52.0020890236" lon="-1.8609910458"><ele>225.09</ele><time>2012-01-04T09:58:19Z</time></trkpt><trkpt lat="52.0020501316" lon="-1.8609513994"><ele>226.05</ele><time>2012-01-04T09:58:23Z</time></trkpt><trkpt lat="52.0019972418" lon="-1.8608772196"><ele>227.01</ele><time>2012-01-04T09:58:36Z</time></trkpt><trkpt lat="52.0018868521" lon="-1.8610006012"><ele>227.01</ele><time>2012-01-04T09:58:54Z</time></trkpt><trkpt lat="52.0018104929" lon="-1.8611440994"><ele>227.97</ele><time>2012-01-04T09:59:08Z</time></trkpt><trkpt lat="52.0017961599" lon="-1.8611670658"><ele>227.97</ele><time>2012-01-04T09:59:10Z</time></trkpt><trkpt lat="52.0016695093" lon="-1.8613874260"><ele>227.49</ele><time>2012-01-04T09:59:24Z</time></trkpt><trkpt lat="52.0016321260" lon="-1.8614766933"><ele>227.49</ele><time>2012-01-04T09:59:29Z</time></trkpt><trkpt lat="52.0016187150" lon="-1.8615817185"><ele>226.53</ele><time>2012-01-04T09:59:35Z</time></trkpt><trkpt lat="52.0016139373" lon="-1.8618119694"><ele>230.37</ele><time>2012-01-04T09:59:49Z</time></trkpt><trkpt lat="52.0016079862" lon="-1.8618211895"><ele>226.05</ele><time>2012-01-04T09:59:50Z</time></trkpt><trkpt lat="52.0016120933" lon="-1.8620229419"><ele>224.12</ele><time>2012-01-04T10:00:03Z</time></trkpt><trkpt lat="52.0015725307" lon="-1.8622058351"><ele>223.64</ele><time>2012-01-04T10:00:15Z</time></trkpt><trkpt lat="52.0015165396" lon="-1.8623022269"><ele>224.12</ele><time>2012-01-04T10:00:22Z</time></trkpt><trkpt lat="52.0014577825" lon="-1.8624693621"><ele>224.12</ele><time>2012-01-04T10:00:33Z</time></trkpt><trkpt lat="52.0014473051" lon="-1.8625326455"><ele>223.64</ele><time>2012-01-04T10:00:37Z</time></trkpt><trkpt lat="52.0014022943" lon="-1.8627970107"><ele>224.61</ele><time>2012-01-04T10:00:51Z</time></trkpt><trkpt lat="52.0013757236" lon="-1.8630636390"><ele>225.09</ele><time>2012-01-04T10:01:08Z</time></trkpt><trkpt lat="52.0013343170" lon="-1.8632251583"><ele>225.57</ele><time>2012-01-04T10:01:23Z</time></trkpt><trkpt lat="52.0013589598" lon="-1.8634214625"><ele>226.05</ele><time>2012-01-04T10:01:35Z</time></trkpt><trkpt lat="52.0013541821" lon="-1.8636983167"><ele>227.01</ele><time>2012-01-04T10:01:50Z</time></trkpt><trkpt lat="52.0013312157" lon="-1.8638024200"><ele>227.97</ele><time>2012-01-04T10:02:07Z</time></trkpt><trkpt lat="52.0013111830" lon="-1.8640469201"><ele>229.89</ele><time>2012-01-04T10:02:24Z</time></trkpt><trkpt lat="52.0012581255" lon="-1.8642174918"><ele>231.81</ele><time>2012-01-04T10:02:40Z</time></trkpt><trkpt lat="52.0012351591" lon="-1.8643445615"><ele>233.26</ele><time>2012-01-04T10:02:55Z</time></trkpt><trkpt lat="52.0010873862" lon="-1.8645350821"><ele>235.18</ele><time>2012-01-04T10:03:15Z</time></trkpt><trkpt lat="52.0010033157" lon="-1.8646910693"><ele>236.62</ele><time>2012-01-04T10:03:32Z</time></trkpt><trkpt lat="52.0009406190" lon="-1.8647887185"><ele>238.54</ele><time>2012-01-04T10:03:46Z</time></trkpt><trkpt lat="52.0008875616" lon="-1.8649536744"><ele>240.47</ele><time>2012-01-04T10:04:06Z</time></trkpt><trkpt lat="52.0007996354" lon="-1.8650974240"><ele>242.39</ele><time>2012-01-04T10:04:22Z</time></trkpt><trkpt lat="52.0005926024" lon="-1.8652578536"><ele>243.83</ele><time>2012-01-04T10:04:38Z</time></trkpt><trkpt lat="52.0005024131" lon="-1.8653422594"><ele>245.27</ele><time>2012-01-04T10:04:53Z</time></trkpt><trkpt lat="52.0003058575" lon="-1.8653868511"><ele>247.20</ele><time>2012-01-04T10:05:10Z</time></trkpt><trkpt lat="52.0001357049" lon="-1.8654053751"><ele>248.16</ele><time>2012-01-04T10:05:27Z</time></trkpt><trkpt lat="51.9999621995" lon="-1.8654018547"><ele>249.60</ele><time>2012-01-04T10:05:44Z</time></trkpt><trkpt lat="51.9997942261" lon="-1.8653565925"><ele>251.04</ele><time>2012-01-04T10:06:02Z</time></trkpt><trkpt lat="51.9996362273" lon="-1.8653129227"><ele>252.48</ele><time>2012-01-04T10:06:19Z</time></trkpt><trkpt lat="51.9994940702" lon="-1.8652974162"><ele>252.48</ele><time>2012-01-04T10:06:34Z</time></trkpt><trkpt lat="51.9993408490" lon="-1.8652553391"><ele>252.96</ele><time>2012-01-04T10:06:49Z</time></trkpt><trkpt lat="51.9991777372" lon="-1.8652156927"><ele>253.44</ele><time>2012-01-04T10:07:05Z</time></trkpt><trkpt lat="51.9990567025" lon="-1.8651686702"><ele>254.89</ele><time>2012-01-04T10:07:19Z</time></trkpt><trkpt lat="51.9989267830" lon="-1.8650790676"><ele>254.89</ele><time>2012-01-04T10:07:32Z</time></trkpt><trkpt lat="51.9988761563" lon="-1.8650388345"><ele>255.85</ele><time>2012-01-04T10:07:39Z</time></trkpt><trkpt lat="51.9987294730" lon="-1.8649226613"><ele>255.37</ele><time>2012-01-04T10:07:55Z</time></trkpt><trkpt lat="51.9986114558" lon="-1.8648200668"><ele>255.85</ele><time>2012-01-04T10:08:10Z</time></trkpt><trkpt lat="51.9985980447" lon="-1.8648090865"><ele>256.33</ele><time>2012-01-04T10:08:12Z</time></trkpt><trkpt lat="51.9985324983" lon="-1.8647629861"><ele>256.33</ele><time>2012-01-04T10:08:18Z</time></trkpt><trkpt lat="51.9984504394" lon="-1.8646816816"><ele>256.81</ele><time>2012-01-04T10:08:27Z</time></trkpt><trkpt lat="51.9983098749" lon="-1.8644911610"><ele>256.81</ele><time>2012-01-04T10:08:44Z</time></trkpt><trkpt lat="51.9981718250" lon="-1.8643360119"><ele>256.81</ele><time>2012-01-04T10:08:59Z</time></trkpt><trkpt lat="51.9981281552" lon="-1.8642969523"><ele>257.29</ele><time>2012-01-04T10:09:04Z</time></trkpt><trkpt lat="51.9979747664" lon="-1.8641326670"><ele>256.81</ele><time>2012-01-04T10:09:22Z</time></trkpt><trkpt lat="51.9978375547" lon="-1.8639712315"><ele>256.33</ele><time>2012-01-04T10:09:38Z</time></trkpt><trkpt lat="51.9977195375" lon="-1.8638540525"><ele>255.37</ele><time>2012-01-04T10:09:51Z</time></trkpt><trkpt lat="51.9976660609" lon="-1.8638026714"><ele>255.85</ele><time>2012-01-04T10:10:06Z</time></trkpt><trkpt lat="51.9976697490" lon="-1.8638092093"><ele>254.89</ele><time>2012-01-04T10:10:19Z</time></trkpt><trkpt lat="51.9975977484" lon="-1.8637233786"><ele>254.41</ele><time>2012-01-04T10:10:33Z</time></trkpt><trkpt lat="51.9974654820" lon="-1.8635708280"><ele>252.96</ele><time>2012-01-04T10:10:47Z</time></trkpt><trkpt lat="51.9973810762" lon="-1.8634993304"><ele>252.00</ele><time>2012-01-04T10:10:57Z</time></trkpt><trkpt lat="51.9972328003" lon="-1.8633363023"><ele>251.52</ele><time>2012-01-04T10:11:13Z</time></trkpt><trkpt lat="51.9971089996" lon="-1.8631923012"><ele>251.52</ele><time>2012-01-04T10:11:27Z</time></trkpt><trkpt lat="51.9970924873" lon="-1.8631777167"><ele>250.56</ele><time>2012-01-04T10:11:29Z</time></trkpt><trkpt lat="51.9969252683" lon="-1.8630027864"><ele>251.04</ele><time>2012-01-04T10:11:48Z</time></trkpt><trkpt lat="51.9967813510" lon="-1.8629212305"><ele>250.56</ele><time>2012-01-04T10:12:03Z</time></trkpt><trkpt lat="51.9966345839" lon="-1.8630705960"><ele>251.04</ele><time>2012-01-04T10:12:18Z</time></trkpt><trkpt lat="51.9965040777" lon="-1.8632475380"><ele>251.04</ele><time>2012-01-04T10:12:33Z</time></trkpt><trkpt lat="51.9963602442" lon="-1.8634716701"><ele>251.04</ele><time>2012-01-04T10:12:51Z</time></trkpt><trkpt lat="51.9963263813" lon="-1.8635186926"><ele>251.52</ele><time>2012-01-04T10:12:55Z</time></trkpt><trkpt lat="51.9962070230" lon="-1.8637134042"><ele>251.04</ele><time>2012-01-04T10:13:10Z</time></trkpt><trkpt lat="51.9960724935" lon="-1.8639472593"><ele>252.00</ele><time>2012-01-04T10:13:28Z</time></trkpt><trkpt lat="51.9959716592" lon="-1.8641332537"><ele>252.00</ele><time>2012-01-04T10:13:43Z</time></trkpt><trkpt lat="51.9959505368" lon="-1.8641625904"><ele>251.52</ele><time>2012-01-04T10:13:46Z</time></trkpt><trkpt lat="51.9959194399" lon="-1.8642242812"><ele>251.52</ele><time>2012-01-04T10:13:50Z</time></trkpt><trkpt lat="51.9957867544" lon="-1.8644212559"><ele>250.08</ele><time>2012-01-04T10:14:06Z</time></trkpt><trkpt lat="51.9956478663" lon="-1.8646138720"><ele>250.56</ele><time>2012-01-04T10:14:21Z</time></trkpt><trkpt lat="51.9955139235" lon="-1.8647996150"><ele>249.60</ele><time>2012-01-04T10:14:37Z</time></trkpt><trkpt lat="51.9954111613" lon="-1.8649514113"><ele>249.12</ele><time>2012-01-04T10:14:54Z</time></trkpt><trkpt lat="51.9952968322" lon="-1.8651257548"><ele>248.16</ele><time>2012-01-04T10:15:10Z</time></trkpt><trkpt lat="51.9951950759" lon="-1.8652618770"><ele>246.72</ele><time>2012-01-04T10:15:25Z</time></trkpt><trkpt lat="51.9951237459" lon="-1.8653067201"><ele>247.20</ele><time>2012-01-04T10:15:40Z</time></trkpt><trkpt lat="51.9951237459" lon="-1.8653067201"><ele>247.20</ele><time>2012-01-04T10:15:48Z</time></trkpt><trkpt lat="51.9950835127" lon="-1.8654035311"><ele>245.75</ele><time>2012-01-04T10:15:58Z</time></trkpt><trkpt lat="51.9950835127" lon="-1.8654035311"><ele>246.23</ele><time>2012-01-04T10:16:15Z</time></trkpt><trkpt lat="51.9950530026" lon="-1.8654508051"><ele>245.27</ele><time>2012-01-04T10:16:22Z</time></trkpt><trkpt lat="51.9949398469" lon="-1.8656411581"><ele>243.83</ele><time>2012-01-04T10:16:38Z</time></trkpt><trkpt lat="51.9949123543" lon="-1.8656847440"><ele>243.83</ele><time>2012-01-04T10:16:42Z</time></trkpt><trkpt lat="51.9948758930" lon="-1.8657362927"><ele>243.83</ele><time>2012-01-04T10:16:46Z</time></trkpt><trkpt lat="51.9948570337" lon="-1.8657652941"><ele>243.35</ele><time>2012-01-04T10:16:48Z</time></trkpt><trkpt lat="51.9946726318" lon="-1.8659957126"><ele>243.35</ele><time>2012-01-04T10:17:06Z</time></trkpt><trkpt lat="51.9945583027" lon="-1.8661678769"><ele>242.87</ele><time>2012-01-04T10:17:20Z</time></trkpt><trkpt lat="51.9945179857" lon="-1.8662439846"><ele>242.87</ele><time>2012-01-04T10:17:34Z</time></trkpt><trkpt lat="51.9945133757" lon="-1.8662597425"><ele>242.87</ele><time>2012-01-04T10:17:37Z</time></trkpt><trkpt lat="51.9944865536" lon="-1.8663280550"><ele>242.39</ele><time>2012-01-04T10:17:42Z</time></trkpt><trkpt lat="51.9943658542" lon="-1.8665695377"><ele>242.87</ele><time>2012-01-04T10:17:59Z</time></trkpt><trkpt lat="51.9942516927" lon="-1.8667751458"><ele>243.35</ele><time>2012-01-04T10:18:14Z</time></trkpt><trkpt lat="51.9942068495" lon="-1.8668873794"><ele>243.35</ele><time>2012-01-04T10:18:23Z</time></trkpt><trkpt lat="51.9941886608" lon="-1.8669416942"><ele>243.83</ele><time>2012-01-04T10:18:26Z</time></trkpt><trkpt lat="51.9941050932" lon="-1.8671675865"><ele>245.27</ele><time>2012-01-04T10:18:42Z</time></trkpt><trkpt lat="51.9941086974" lon="-1.8671789020"><ele>245.27</ele><time>2012-01-04T10:18:51Z</time></trkpt><trkpt lat="51.9940189272" lon="-1.8673980050"><ele>246.23</ele><time>2012-01-04T10:19:06Z</time></trkpt><trkpt lat="51.9939470105" lon="-1.8675933871"><ele>246.23</ele><time>2012-01-04T10:19:18Z</time></trkpt><trkpt lat="51.9938740879" lon="-1.8678655475"><ele>247.20</ele><time>2012-01-04T10:19:34Z</time></trkpt><trkpt lat="51.9938310049" lon="-1.8680033460"><ele>248.16</ele><time>2012-01-04T10:19:43Z</time></trkpt><trkpt lat="51.9937547296" lon="-1.8682735786"><ele>248.16</ele><time>2012-01-04T10:20:01Z</time></trkpt><trkpt lat="51.9937424082" lon="-1.8683331739"><ele>248.16</ele><time>2012-01-04T10:20:05Z</time></trkpt><trkpt lat="51.9937128201" lon="-1.8684159871"><ele>248.16</ele><time>2012-01-04T10:20:11Z</time></trkpt><trkpt lat="51.9936823938" lon="-1.8685407937"><ele>248.64</ele><time>2012-01-04T10:20:18Z</time></trkpt><trkpt lat="51.9936146680" lon="-1.8688285444"><ele>248.16</ele><time>2012-01-04T10:20:35Z</time></trkpt><trkpt lat="51.9935600180" lon="-1.8690748885"><ele>248.16</ele><time>2012-01-04T10:20:50Z</time></trkpt><trkpt lat="51.9935071282" lon="-1.8693109229"><ele>248.64</ele><time>2012-01-04T10:21:05Z</time></trkpt><trkpt lat="51.9934635423" lon="-1.8694259226"><ele>249.60</ele><time>2012-01-04T10:21:19Z</time></trkpt><trkpt lat="51.9934635423" lon="-1.8694259226"><ele>249.60</ele><time>2012-01-04T10:21:33Z</time></trkpt><trkpt lat="51.9934635423" lon="-1.8694259226"><ele>249.12</ele><time>2012-01-04T10:21:53Z</time></trkpt><trkpt lat="51.9934626203" lon="-1.8694291916"><ele>248.16</ele><time>2012-01-04T10:22:14Z</time></trkpt><trkpt lat="51.9934626203" lon="-1.8694291916"><ele>248.16</ele><time>2012-01-04T10:22:29Z</time></trkpt><trkpt lat="51.9934606086" lon="-1.8694407586"><ele>247.68</ele><time>2012-01-04T10:22:44Z</time></trkpt><trkpt lat="51.9934606086" lon="-1.8694407586"><ele>249.12</ele><time>2012-01-04T10:23:02Z</time></trkpt><trkpt lat="51.9934616145" lon="-1.8694550078"><ele>249.12</ele><time>2012-01-04T10:23:19Z</time></trkpt><trkpt lat="51.9934616145" lon="-1.8694550078"><ele>249.60</ele><time>2012-01-04T10:23:37Z</time></trkpt><trkpt lat="51.9935770333" lon="-1.8697677366"><ele>251.04</ele><time>2012-01-04T10:23:54Z</time></trkpt><trkpt lat="51.9938181806" lon="-1.8705772609"><ele>252.00</ele><time>2012-01-04T10:24:12Z</time></trkpt><trkpt lat="51.9938847329" lon="-1.8708381057"><ele>252.96</ele><time>2012-01-04T10:24:27Z</time></trkpt><trkpt lat="51.9939451665" lon="-1.8710485753"><ele>252.96</ele><time>2012-01-04T10:24:43Z</time></trkpt><trkpt lat="51.9939568173" lon="-1.8711312208"><ele>252.96</ele><time>2012-01-04T10:24:59Z</time></trkpt><trkpt lat="51.9939714018" lon="-1.8711836077"><ele>254.89</ele><time>2012-01-04T10:25:12Z</time></trkpt><trkpt lat="51.9940035883" lon="-1.8712644093"><ele>254.89</ele><time>2012-01-04T10:25:23Z</time></trkpt><trkpt lat="51.9940956216" lon="-1.8715949077"><ele>254.41</ele><time>2012-01-04T10:25:36Z</time></trkpt><trkpt lat="51.9941382855" lon="-1.8718062993"><ele>256.81</ele><time>2012-01-04T10:25:50Z</time></trkpt><trkpt lat="51.9941600785" lon="-1.8719616160"><ele>257.77</ele><time>2012-01-04T10:26:02Z</time></trkpt><trkpt lat="51.9942257926" lon="-1.8721487001"><ele>257.77</ele><time>2012-01-04T10:26:16Z</time></trkpt><trkpt lat="51.9942475855" lon="-1.8722369615"><ele>258.25</ele><time>2012-01-04T10:26:21Z</time></trkpt><trkpt lat="51.9942970388" lon="-1.8724382110"><ele>259.69</ele><time>2012-01-04T10:26:35Z</time></trkpt><trkpt lat="51.9943279680" lon="-1.8726716470"><ele>260.17</ele><time>2012-01-04T10:26:50Z</time></trkpt><trkpt lat="51.9943593163" lon="-1.8728146423"><ele>262.10</ele><time>2012-01-04T10:26:59Z</time></trkpt><trkpt lat="51.9943778403" lon="-1.8729970325"><ele>262.10</ele><time>2012-01-04T10:27:12Z</time></trkpt><trkpt lat="51.9944047462" lon="-1.8732646666"><ele>262.10</ele><time>2012-01-04T10:27:28Z</time></trkpt><trkpt lat="51.9944225159" lon="-1.8734629825"><ele>262.58</ele><time>2012-01-04T10:27:42Z</time></trkpt><trkpt lat="51.9944484159" lon="-1.8736716919"><ele>264.02</ele><time>2012-01-04T10:27:57Z</time></trkpt><trkpt lat="51.9944550376" lon="-1.8739154376"><ele>265.46</ele><time>2012-01-04T10:28:11Z</time></trkpt><trkpt lat="51.9944669399" lon="-1.8741254043"><ele>266.42</ele><time>2012-01-04T10:28:26Z</time></trkpt><trkpt lat="51.9944692031" lon="-1.8743553199"><ele>268.35</ele><time>2012-01-04T10:28:41Z</time></trkpt><trkpt lat="51.9944771659" lon="-1.8744924478"><ele>269.31</ele><time>2012-01-04T10:28:56Z</time></trkpt><trkpt lat="51.9944795128" lon="-1.8746817112"><ele>270.75</ele><time>2012-01-04T10:29:07Z</time></trkpt><trkpt lat="51.9944780879" lon="-1.8748161569"><ele>270.75</ele><time>2012-01-04T10:29:19Z</time></trkpt><trkpt lat="51.9944820274" lon="-1.8748882413"><ele>272.19</ele><time>2012-01-04T10:29:23Z</time></trkpt><trkpt lat="51.9944834523" lon="-1.8750528619"><ele>273.63</ele><time>2012-01-04T10:29:35Z</time></trkpt><trkpt lat="51.9944923371" lon="-1.8752384372"><ele>275.07</ele><time>2012-01-04T10:29:49Z</time></trkpt><trkpt lat="51.9944817759" lon="-1.8754819315"><ele>277.00</ele><time>2012-01-04T10:30:03Z</time></trkpt><trkpt lat="51.9944900740" lon="-1.8756502401"><ele>278.44</ele><time>2012-01-04T10:30:15Z</time></trkpt><trkpt lat="51.9944945164" lon="-1.8757291138"><ele>278.92</ele><time>2012-01-04T10:30:20Z</time></trkpt><trkpt lat="51.9944903255" lon="-1.8759528268"><ele>280.84</ele><time>2012-01-04T10:30:34Z</time></trkpt><trkpt lat="51.9944821950" lon="-1.8761439342"><ele>283.73</ele><time>2012-01-04T10:30:47Z</time></trkpt><trkpt lat="51.9944859669" lon="-1.8763450999"><ele>285.17</ele><time>2012-01-04T10:31:01Z</time></trkpt><trkpt lat="51.9944905769" lon="-1.8765681423"><ele>287.09</ele><time>2012-01-04T10:31:15Z</time></trkpt><trkpt lat="51.9944798481" lon="-1.8767875805"><ele>288.05</ele><time>2012-01-04T10:31:29Z</time></trkpt><trkpt lat="51.9944810215" lon="-1.8769234512"><ele>289.97</ele><time>2012-01-04T10:31:39Z</time></trkpt><trkpt lat="51.9945019763" lon="-1.8771694601"><ele>291.42</ele><time>2012-01-04T10:31:55Z</time></trkpt><trkpt lat="51.9945057482" lon="-1.8772169016"><ele>292.86</ele><time>2012-01-04T10:31:58Z</time></trkpt><trkpt lat="51.9944905769" lon="-1.8775136210"><ele>293.82</ele><time>2012-01-04T10:32:15Z</time></trkpt><trkpt lat="51.9944992103" lon="-1.8777768128"><ele>295.74</ele><time>2012-01-04T10:32:30Z</time></trkpt><trkpt lat="51.9944987912" lon="-1.8777921516"><ele>295.74</ele><time>2012-01-04T10:32:31Z</time></trkpt><trkpt lat="51.9944931753" lon="-1.8779613823"><ele>295.74</ele><time>2012-01-04T10:32:41Z</time></trkpt><trkpt lat="51.9945105258" lon="-1.8782411702"><ele>295.74</ele><time>2012-01-04T10:32:57Z</time></trkpt><trkpt lat="51.9945080951" lon="-1.8784784619"><ele>297.67</ele><time>2012-01-04T10:33:11Z</time></trkpt><trkpt lat="51.9944849610" lon="-1.8786628637"><ele>298.63</ele><time>2012-01-04T10:33:23Z</time></trkpt><trkpt lat="51.9944908284" lon="-1.8786704913"><ele>298.63</ele><time>2012-01-04T10:33:41Z</time></trkpt><trkpt lat="51.9944893196" lon="-1.8786727544"><ele>299.11</ele><time>2012-01-04T10:34:09Z</time></trkpt><trkpt lat="51.9944884814" lon="-1.8786704075"><ele>299.11</ele><time>2012-01-04T10:34:31Z</time></trkpt><trkpt lat="51.9944936782" lon="-1.8786770292"><ele>298.63</ele><time>2012-01-04T10:34:52Z</time></trkpt><trkpt lat="51.9944946840" lon="-1.8786802143"><ele>298.15</ele><time>2012-01-04T10:35:13Z</time></trkpt><trkpt lat="51.9945055805" lon="-1.8786881771"><ele>299.11</ele><time>2012-01-04T10:35:26Z</time></trkpt><trkpt lat="51.9945299719" lon="-1.8786916137"><ele>298.63</ele><time>2012-01-04T10:35:42Z</time></trkpt><trkpt lat="51.9945528544" lon="-1.8786727544"><ele>299.11</ele><time>2012-01-04T10:35:52Z</time></trkpt><trkpt lat="51.9945528544" lon="-1.8786727544"><ele>298.63</ele><time>2012-01-04T10:36:12Z</time></trkpt><trkpt lat="51.9945535250" lon="-1.8786714971"><ele>298.63</ele><time>2012-01-04T10:36:40Z</time></trkpt><trkpt lat="51.9945535250" lon="-1.8786714971"><ele>298.63</ele><time>2012-01-04T10:37:07Z</time></trkpt><trkpt lat="51.9945546985" lon="-1.8786507938"><ele>298.63</ele><time>2012-01-04T10:37:23Z</time></trkpt><trkpt lat="51.9946008828" lon="-1.8786216248"><ele>298.63</ele><time>2012-01-04T10:37:35Z</time></trkpt><trkpt lat="51.9945998769" lon="-1.8786201160"><ele>299.59</ele><time>2012-01-04T10:38:00Z</time></trkpt><trkpt lat="51.9945998769" lon="-1.8786201160"><ele>300.07</ele><time>2012-01-04T10:38:36Z</time></trkpt><trkpt lat="51.9945998769" lon="-1.8786201160"><ele>300.07</ele><time>2012-01-04T10:38:37Z</time></trkpt><trkpt lat="51.9946123660" lon="-1.8786233012"><ele>300.07</ele><time>2012-01-04T10:38:52Z</time></trkpt><trkpt lat="51.9946446363" lon="-1.8786201160"><ele>300.07</ele><time>2012-01-04T10:38:56Z</time></trkpt><trkpt lat="51.9946885575" lon="-1.8786153384"><ele>300.07</ele><time>2012-01-04T10:39:01Z</time></trkpt><trkpt lat="51.9947734661" lon="-1.8786045257"><ele>300.07</ele><time>2012-01-04T10:39:09Z</time></trkpt><trkpt lat="51.9949007034" lon="-1.8786274083"><ele>301.03</ele><time>2012-01-04T10:39:23Z</time></trkpt><trkpt lat="51.9950406812" lon="-1.8786373828"><ele>301.51</ele><time>2012-01-04T10:39:37Z</time></trkpt><trkpt lat="51.9951769710" lon="-1.8786431663"><ele>301.99</ele><time>2012-01-04T10:39:51Z</time></trkpt><trkpt lat="51.9952517375" lon="-1.8786569126"><ele>301.03</ele><time>2012-01-04T10:39:59Z</time></trkpt><trkpt lat="51.9952856004" lon="-1.8786813878"><ele>302.47</ele><time>2012-01-04T10:40:03Z</time></trkpt><trkpt lat="51.9953473751" lon="-1.8787000794"><ele>303.43</ele><time>2012-01-04T10:40:16Z</time></trkpt><trkpt lat="51.9953521527" lon="-1.8787035160"><ele>303.43</ele><time>2012-01-04T10:40:36Z</time></trkpt><trkpt lat="51.9953473751" lon="-1.8787023425"><ele>303.43</ele><time>2012-01-04T10:40:59Z</time></trkpt><trkpt lat="51.9953505602" lon="-1.8787065335"><ele>303.91</ele><time>2012-01-04T10:41:20Z</time></trkpt><trkpt lat="51.9953761250" lon="-1.8786957208"><ele>303.91</ele><time>2012-01-04T10:41:50Z</time></trkpt><trkpt lat="51.9955188688" lon="-1.8786952179"><ele>303.43</ele><time>2012-01-04T10:42:04Z</time></trkpt><trkpt lat="51.9955384824" lon="-1.8786922842"><ele>303.91</ele><time>2012-01-04T10:42:06Z</time></trkpt><trkpt lat="51.9955967367" lon="-1.8786883447"><ele>303.43</ele><time>2012-01-04T10:42:12Z</time></trkpt><trkpt lat="51.9957396481" lon="-1.8786934577"><ele>302.95</ele><time>2012-01-04T10:42:26Z</time></trkpt><trkpt lat="51.9958871696" lon="-1.8787072878"><ele>304.39</ele><time>2012-01-04T10:42:40Z</time></trkpt><trkpt lat="51.9960544724" lon="-1.8787145801"><ele>304.39</ele><time>2012-01-04T10:42:56Z</time></trkpt><trkpt lat="51.9961929414" lon="-1.8787274882"><ele>304.88</ele><time>2012-01-04T10:43:11Z</time></trkpt><trkpt lat="51.9962143991" lon="-1.8787294999"><ele>304.88</ele><time>2012-01-04T10:43:13Z</time></trkpt><trkpt lat="51.9963591546" lon="-1.8787335232"><ele>304.88</ele><time>2012-01-04T10:43:27Z</time></trkpt><trkpt lat="51.9963780977" lon="-1.8787330203"><ele>304.39</ele><time>2012-01-04T10:43:29Z</time></trkpt><trkpt lat="51.9965015631" lon="-1.8787262309"><ele>305.36</ele><time>2012-01-04T10:43:42Z</time></trkpt><trkpt lat="51.9965947699" lon="-1.8787362892"><ele>303.91</ele><time>2012-01-04T10:43:58Z</time></trkpt><trkpt lat="51.9965947699" lon="-1.8787362892"><ele>306.32</ele><time>2012-01-04T10:44:03Z</time></trkpt><trkpt lat="51.9966256991" lon="-1.8787159212"><ele>305.84</ele><time>2012-01-04T10:44:16Z</time></trkpt><trkpt lat="51.9967320655" lon="-1.8787192740"><ele>304.88</ele><time>2012-01-04T10:44:25Z</time></trkpt><trkpt lat="51.9968947582" lon="-1.8787250575"><ele>305.84</ele><time>2012-01-04T10:44:41Z</time></trkpt><trkpt lat="51.9969465584" lon="-1.8787310924"><ele>305.84</ele><time>2012-01-04T10:44:47Z</time></trkpt><trkpt lat="51.9970107637" lon="-1.8787509575"><ele>305.84</ele><time>2012-01-04T10:45:02Z</time></trkpt><trkpt lat="51.9970406033" lon="-1.8787784502"><ele>306.32</ele><time>2012-01-04T10:45:16Z</time></trkpt><trkpt lat="51.9970571157" lon="-1.8787847366"><ele>305.84</ele><time>2012-01-04T10:45:39Z</time></trkpt><trkpt lat="51.9971745461" lon="-1.8787844013"><ele>305.36</ele><time>2012-01-04T10:45:48Z</time></trkpt><trkpt lat="51.9972950779" lon="-1.8787927832"><ele>306.32</ele><time>2012-01-04T10:45:58Z</time></trkpt><trkpt lat="51.9973371550" lon="-1.8787939567"><ele>305.84</ele><time>2012-01-04T10:46:02Z</time></trkpt><trkpt lat="51.9974153582" lon="-1.8788136542"><ele>305.84</ele><time>2012-01-04T10:46:09Z</time></trkpt><trkpt lat="51.9974539988" lon="-1.8788139895"><ele>305.84</ele><time>2012-01-04T10:46:12Z</time></trkpt><trkpt lat="51.9975378178" lon="-1.8788347766"><ele>305.84</ele><time>2012-01-04T10:46:19Z</time></trkpt><trkpt lat="51.9977114070" lon="-1.8788534682"><ele>306.80</ele><time>2012-01-04T10:46:35Z</time></trkpt><trkpt lat="51.9978544023" lon="-1.8788717408"><ele>306.32</ele><time>2012-01-04T10:46:47Z</time></trkpt><trkpt lat="51.9979976490" lon="-1.8789000716"><ele>306.80</ele><time>2012-01-04T10:47:00Z</time></trkpt><trkpt lat="51.9980211183" lon="-1.8788996525"><ele>306.32</ele><time>2012-01-04T10:47:02Z</time></trkpt><trkpt lat="51.9981927797" lon="-1.8789315037"><ele>307.28</ele><time>2012-01-04T10:47:17Z</time></trkpt><trkpt lat="51.9982165843" lon="-1.8789345212"><ele>306.32</ele><time>2012-01-04T10:47:19Z</time></trkpt><trkpt lat="51.9983098749" lon="-1.8789528776"><ele>307.76</ele><time>2012-01-04T10:47:28Z</time></trkpt><trkpt lat="51.9983555563" lon="-1.8789370358"><ele>305.36</ele><time>2012-01-04T10:47:32Z</time></trkpt><trkpt lat="51.9985288102" lon="-1.8789765984"><ele>306.80</ele><time>2012-01-04T10:47:46Z</time></trkpt><trkpt lat="51.9986749068" lon="-1.8790085334"><ele>307.76</ele><time>2012-01-04T10:47:59Z</time></trkpt><trkpt lat="51.9988070056" lon="-1.8790244590"><ele>306.80</ele><time>2012-01-04T10:48:12Z</time></trkpt><trkpt lat="51.9988715462" lon="-1.8790382892"><ele>307.76</ele><time>2012-01-04T10:48:27Z</time></trkpt><trkpt lat="51.9989916589" lon="-1.8790453300"><ele>306.32</ele><time>2012-01-04T10:48:39Z</time></trkpt><trkpt lat="51.9991027191" lon="-1.8790283985"><ele>306.32</ele><time>2012-01-04T10:48:51Z</time></trkpt><trkpt lat="51.9991820958" lon="-1.8790304102"><ele>306.80</ele><time>2012-01-04T10:49:00Z</time></trkpt><trkpt lat="51.9993569423" lon="-1.8790397979"><ele>306.80</ele><time>2012-01-04T10:49:16Z</time></trkpt><trkpt lat="51.9995249994" lon="-1.8790539633"><ele>307.28</ele><time>2012-01-04T10:49:30Z</time></trkpt><trkpt lat="51.9996701740" lon="-1.8790607527"><ele>306.32</ele><time>2012-01-04T10:49:42Z</time></trkpt><trkpt lat="51.9998015184" lon="-1.8790797796"><ele>304.39</ele><time>2012-01-04T10:49:54Z</time></trkpt><trkpt lat="51.9999522250" lon="-1.8790676259"><ele>305.84</ele><time>2012-01-04T10:50:08Z</time></trkpt><trkpt lat="52.0000711642" lon="-1.8790704757"><ele>304.88</ele><time>2012-01-04T10:50:21Z</time></trkpt><trkpt lat="52.0002205297" lon="-1.8790852278"><ele>304.39</ele><time>2012-01-04T10:50:37Z</time></trkpt><trkpt lat="52.0003870782" lon="-1.8791258801"><ele>305.36</ele><time>2012-01-04T10:50:53Z</time></trkpt><trkpt lat="52.0004089549" lon="-1.8791334238"><ele>304.39</ele><time>2012-01-04T10:50:54Z</time></trkpt><trkpt lat="52.0005829632" lon="-1.8791132234"><ele>303.43</ele><time>2012-01-04T10:51:06Z</time></trkpt><trkpt lat="52.0006595738" lon="-1.8791035004"><ele>303.43</ele><time>2012-01-04T10:51:14Z</time></trkpt><trkpt lat="52.0007968694" lon="-1.8791263830"><ele>303.91</ele><time>2012-01-04T10:51:27Z</time></trkpt><trkpt lat="52.0008663554" lon="-1.8791413866"><ele>304.39</ele><time>2012-01-04T10:51:34Z</time></trkpt><trkpt lat="52.0009046607" lon="-1.8791495170"><ele>302.95</ele><time>2012-01-04T10:51:38Z</time></trkpt><trkpt lat="52.0009501744" lon="-1.8791590724"><ele>303.91</ele><time>2012-01-04T10:51:42Z</time></trkpt><trkpt lat="52.0011073351" lon="-1.8791792728"><ele>302.95</ele><time>2012-01-04T10:51:56Z</time></trkpt><trkpt lat="52.0012446307" lon="-1.8791765068"><ele>302.47</ele><time>2012-01-04T10:52:09Z</time></trkpt><trkpt lat="52.0013825968" lon="-1.8791920133"><ele>302.47</ele><time>2012-01-04T10:52:22Z</time></trkpt><trkpt lat="52.0014234167" lon="-1.8791941088"><ele>301.99</ele><time>2012-01-04T10:52:35Z</time></trkpt><trkpt lat="52.0014234167" lon="-1.8791941088"><ele>302.47</ele><time>2012-01-04T10:52:48Z</time></trkpt><trkpt lat="52.0016101655" lon="-1.8792480044"><ele>302.47</ele><time>2012-01-04T10:53:01Z</time></trkpt><trkpt lat="52.0017792284" lon="-1.8792636786"><ele>301.51</ele><time>2012-01-04T10:53:14Z</time></trkpt><trkpt lat="52.0019414183" lon="-1.8792794365"><ele>301.03</ele><time>2012-01-04T10:53:28Z</time></trkpt><trkpt lat="52.0020999201" lon="-1.8792946078"><ele>300.07</ele><time>2012-01-04T10:53:42Z</time></trkpt><trkpt lat="52.0022286661" lon="-1.8793401215"><ele>299.11</ele><time>2012-01-04T10:53:55Z</time></trkpt><trkpt lat="52.0022840705" lon="-1.8793417141"><ele>299.11</ele><time>2012-01-04T10:54:12Z</time></trkpt><trkpt lat="52.0022840705" lon="-1.8793417141"><ele>299.11</ele><time>2012-01-04T10:54:33Z</time></trkpt><trkpt lat="52.0022885129" lon="-1.8793430552"><ele>298.63</ele><time>2012-01-04T10:54:59Z</time></trkpt><trkpt lat="52.0022942964" lon="-1.8793515209"><ele>298.15</ele><time>2012-01-04T10:55:26Z</time></trkpt><trkpt lat="52.0022942964" lon="-1.8793515209"><ele>297.67</ele><time>2012-01-04T10:55:57Z</time></trkpt><trkpt lat="52.0023019239" lon="-1.8793612439"><ele>298.15</ele><time>2012-01-04T10:56:19Z</time></trkpt><trkpt lat="52.0023091324" lon="-1.8793726433"><ele>297.67</ele><time>2012-01-04T10:56:44Z</time></trkpt><trkpt lat="52.0023091324" lon="-1.8793726433"><ele>297.67</ele><time>2012-01-04T10:57:15Z</time></trkpt><trkpt lat="52.0023114793" lon="-1.8793775048"><ele>296.22</ele><time>2012-01-04T10:57:38Z</time></trkpt><trkpt lat="52.0023147482" lon="-1.8793780077"><ele>297.18</ele><time>2012-01-04T10:58:03Z</time></trkpt><trkpt lat="52.0023147482" lon="-1.8793780077"><ele>296.70</ele><time>2012-01-04T10:58:31Z</time></trkpt><trkpt lat="52.0023999922" lon="-1.8793785106"><ele>296.22</ele><time>2012-01-04T10:58:55Z</time></trkpt><trkpt lat="52.0024155825" lon="-1.8794015609"><ele>296.22</ele><time>2012-01-04T10:59:15Z</time></trkpt><trkpt lat="52.0024155825" lon="-1.8794015609"><ele>296.22</ele><time>2012-01-04T10:59:36Z</time></trkpt><trkpt lat="52.0024167560" lon="-1.8794040754"><ele>297.18</ele><time>2012-01-04T11:00:00Z</time></trkpt><trkpt lat="52.0024196059" lon="-1.8794124573"><ele>296.70</ele><time>2012-01-04T11:00:20Z</time></trkpt><trkpt lat="52.0024317596" lon="-1.8794327416"><ele>297.18</ele><time>2012-01-04T11:00:39Z</time></trkpt><trkpt lat="52.0024317596" lon="-1.8794327416"><ele>296.70</ele><time>2012-01-04T11:01:05Z</time></trkpt><trkpt lat="52.0024362858" lon="-1.8794344179"><ele>297.67</ele><time>2012-01-04T11:01:35Z</time></trkpt><trkpt lat="52.0024496131" lon="-1.8794505950"><ele>297.18</ele><time>2012-01-04T11:02:01Z</time></trkpt><trkpt lat="52.0024496131" lon="-1.8794505950"><ele>297.18</ele><time>2012-01-04T11:02:27Z</time></trkpt><trkpt lat="52.0024535526" lon="-1.8794505950"><ele>296.70</ele><time>2012-01-04T11:02:53Z</time></trkpt><trkpt lat="52.0024535526" lon="-1.8794505950"><ele>297.18</ele><time>2012-01-04T11:03:18Z</time></trkpt><trkpt lat="52.0024564862" lon="-1.8794454820"><ele>296.22</ele><time>2012-01-04T11:03:50Z</time></trkpt><trkpt lat="52.0024608448" lon="-1.8794483319"><ele>296.22</ele><time>2012-01-04T11:04:23Z</time></trkpt><trkpt lat="52.0024647843" lon="-1.8794500083"><ele>295.74</ele><time>2012-01-04T11:04:47Z</time></trkpt><trkpt lat="52.0024647843" lon="-1.8794500083"><ele>296.22</ele><time>2012-01-04T11:05:16Z</time></trkpt><trkpt lat="52.0024786144" lon="-1.8794552051"><ele>294.78</ele><time>2012-01-04T11:05:46Z</time></trkpt><trkpt lat="52.0024873316" lon="-1.8794542830"><ele>295.26</ele><time>2012-01-04T11:06:11Z</time></trkpt><trkpt lat="52.0024888404" lon="-1.8794536963"><ele>294.78</ele><time>2012-01-04T11:06:40Z</time></trkpt><trkpt lat="52.0024888404" lon="-1.8794536963"><ele>294.30</ele><time>2012-01-04T11:07:02Z</time></trkpt><trkpt lat="52.0024900138" lon="-1.8794515170"><ele>293.34</ele><time>2012-01-04T11:07:27Z</time></trkpt><trkpt lat="52.0024926960" lon="-1.8794536963"><ele>293.82</ele><time>2012-01-04T11:07:44Z</time></trkpt><trkpt lat="52.0024926960" lon="-1.8794536963"><ele>293.34</ele><time>2012-01-04T11:08:04Z</time></trkpt><trkpt lat="52.0024950430" lon="-1.8794510979"><ele>293.34</ele><time>2012-01-04T11:08:19Z</time></trkpt><trkpt lat="52.0025381260" lon="-1.8794074282"><ele>292.86</ele><time>2012-01-04T11:08:33Z</time></trkpt><trkpt lat="52.0025835559" lon="-1.8794417102"><ele>292.38</ele><time>2012-01-04T11:08:48Z</time></trkpt><trkpt lat="52.0027138107" lon="-1.8794896547"><ele>291.42</ele><time>2012-01-04T11:09:07Z</time></trkpt><trkpt lat="52.0028638467" lon="-1.8795201648"><ele>292.38</ele><time>2012-01-04T11:09:22Z</time></trkpt><trkpt lat="52.0029588137" lon="-1.8795166444"><ele>292.38</ele><time>2012-01-04T11:09:37Z</time></trkpt><trkpt lat="52.0030602347" lon="-1.8795443885"><ele>292.86</ele><time>2012-01-04T11:09:53Z</time></trkpt><trkpt lat="52.0032041520" lon="-1.8795554526"><ele>293.34</ele><time>2012-01-04T11:10:08Z</time></trkpt><trkpt lat="52.0033223368" lon="-1.8795912433"><ele>291.42</ele><time>2012-01-04T11:10:23Z</time></trkpt><trkpt lat="52.0035415236" lon="-1.8796309736"><ele>292.86</ele><time>2012-01-04T11:10:42Z</time></trkpt><trkpt lat="52.0035701059" lon="-1.8796406966"><ele>291.42</ele><time>2012-01-04T11:10:45Z</time></trkpt><trkpt lat="52.0037862752" lon="-1.8796377629"><ele>289.97</ele><time>2012-01-04T11:11:03Z</time></trkpt><trkpt lat="52.0040193759" lon="-1.8796510063"><ele>289.49</ele><time>2012-01-04T11:11:21Z</time></trkpt><trkpt lat="52.0041819848" lon="-1.8796564545"><ele>288.53</ele><time>2012-01-04T11:11:37Z</time></trkpt><trkpt lat="52.0043746009" lon="-1.8796922453"><ele>288.53</ele><time>2012-01-04T11:11:54Z</time></trkpt><trkpt lat="52.0045138244" lon="-1.8797385134"><ele>286.61</ele><time>2012-01-04T11:12:10Z</time></trkpt><trkpt lat="52.0047103800" lon="-1.8797600549"><ele>285.17</ele><time>2012-01-04T11:12:26Z</time></trkpt><trkpt lat="52.0047576539" lon="-1.8797478173"><ele>284.21</ele><time>2012-01-04T11:12:43Z</time></trkpt><trkpt lat="52.0048063528" lon="-1.8797884695"><ele>284.21</ele><time>2012-01-04T11:12:58Z</time></trkpt><trkpt lat="52.0048107114" lon="-1.8797786627"><ele>284.21</ele><time>2012-01-04T11:13:16Z</time></trkpt><trkpt lat="52.0048107114" lon="-1.8797786627"><ele>284.21</ele><time>2012-01-04T11:13:33Z</time></trkpt><trkpt lat="52.0048118010" lon="-1.8797780760"><ele>283.73</ele><time>2012-01-04T11:14:00Z</time></trkpt><trkpt lat="52.0048118010" lon="-1.8797780760"><ele>284.69</ele><time>2012-01-04T11:14:13Z</time></trkpt><trkpt lat="52.0048623439" lon="-1.8797820993"><ele>283.73</ele><time>2012-01-04T11:14:33Z</time></trkpt><trkpt lat="52.0050727297" lon="-1.8798020482"><ele>281.80</ele><time>2012-01-04T11:14:53Z</time></trkpt><trkpt lat="52.0052026492" lon="-1.8798040599"><ele>280.36</ele><time>2012-01-04T11:15:11Z</time></trkpt><trkpt lat="52.0052033197" lon="-1.8798012938"><ele>281.80</ele><time>2012-01-04T11:15:31Z</time></trkpt><trkpt lat="52.0051981229" lon="-1.8797958456"><ele>281.32</ele><time>2012-01-04T11:15:51Z</time></trkpt><trkpt lat="52.0052682795" lon="-1.8797960971"><ele>280.36</ele><time>2012-01-04T11:16:07Z</time></trkpt><trkpt lat="52.0055074152" lon="-1.8799366616"><ele>279.40</ele><time>2012-01-04T11:16:28Z</time></trkpt><trkpt lat="52.0055747218" lon="-1.8799497373"><ele>278.44</ele><time>2012-01-04T11:16:34Z</time></trkpt><trkpt lat="52.0056960918" lon="-1.8799986877"><ele>279.40</ele><time>2012-01-04T11:16:53Z</time></trkpt><trkpt lat="52.0057716966" lon="-1.8799399305"><ele>277.48</ele><time>2012-01-04T11:17:07Z</time></trkpt><trkpt lat="52.0057802461" lon="-1.8798425328"><ele>277.48</ele><time>2012-01-04T11:17:21Z</time></trkpt><trkpt lat="52.0058224071" lon="-1.8797488231"><ele>276.04</ele><time>2012-01-04T11:17:35Z</time></trkpt><trkpt lat="52.0058419369" lon="-1.8797600549"><ele>276.52</ele><time>2012-01-04T11:17:54Z</time></trkpt><trkpt lat="52.0058444515" lon="-1.8797629047"><ele>276.04</ele><time>2012-01-04T11:18:20Z</time></trkpt><trkpt lat="52.0058483072" lon="-1.8797804229"><ele>276.52</ele><time>2012-01-04T11:18:32Z</time></trkpt><trkpt lat="52.0059598703" lon="-1.8797923252"><ele>275.07</ele><time>2012-01-04T11:18:47Z</time></trkpt><trkpt lat="52.0060904603" lon="-1.8798392639"><ele>274.59</ele><time>2012-01-04T11:19:00Z</time></trkpt><trkpt lat="52.0061004348" lon="-1.8798416108"><ele>275.07</ele><time>2012-01-04T11:19:01Z</time></trkpt><trkpt lat="52.0062680729" lon="-1.8799241725"><ele>273.15</ele><time>2012-01-04T11:19:17Z</time></trkpt><trkpt lat="52.0063882694" lon="-1.8799783196"><ele>273.15</ele><time>2012-01-04T11:19:29Z</time></trkpt><trkpt lat="52.0065977331" lon="-1.8800270185"><ele>270.27</ele><time>2012-01-04T11:19:45Z</time></trkpt><trkpt lat="52.0067972224" lon="-1.8800520804"><ele>270.75</ele><time>2012-01-04T11:20:02Z</time></trkpt><trkpt lat="52.0070490148" lon="-1.8800449558"><ele>270.27</ele><time>2012-01-04T11:20:20Z</time></trkpt><trkpt lat="52.0072238613" lon="-1.8800377473"><ele>269.79</ele><time>2012-01-04T11:20:34Z</time></trkpt><trkpt lat="52.0074003842" lon="-1.8800454587"><ele>270.27</ele><time>2012-01-04T11:20:48Z</time></trkpt><trkpt lat="52.0075860433" lon="-1.8800509907"><ele>269.31</ele><time>2012-01-04T11:21:05Z</time></trkpt><trkpt lat="52.0076155476" lon="-1.8801158667"><ele>268.83</ele><time>2012-01-04T11:21:18Z</time></trkpt><trkpt lat="52.0076221693" lon="-1.8801218178"><ele>269.31</ele><time>2012-01-04T11:21:20Z</time></trkpt><trkpt lat="52.0076793339" lon="-1.8801656552"><ele>268.35</ele><time>2012-01-04T11:21:33Z</time></trkpt><trkpt lat="52.0077182259" lon="-1.8801890407"><ele>268.35</ele><time>2012-01-04T11:21:51Z</time></trkpt><trkpt lat="52.0078119356" lon="-1.8802327104"><ele>266.90</ele><time>2012-01-04T11:21:59Z</time></trkpt><trkpt lat="52.0080379117" lon="-1.8804128375"><ele>267.38</ele><time>2012-01-04T11:22:20Z</time></trkpt><trkpt lat="52.0082438551" lon="-1.8805531505"><ele>266.42</ele><time>2012-01-04T11:22:40Z</time></trkpt><trkpt lat="52.0083679911" lon="-1.8807239737"><ele>267.38</ele><time>2012-01-04T11:23:00Z</time></trkpt><trkpt lat="52.0083679911" lon="-1.8807239737"><ele>265.94</ele><time>2012-01-04T11:23:01Z</time></trkpt><trkpt lat="52.0083880238" lon="-1.8807465211"><ele>265.94</ele><time>2012-01-04T11:23:04Z</time></trkpt><trkpt lat="52.0086042769" lon="-1.8808175996"><ele>265.94</ele><time>2012-01-04T11:23:25Z</time></trkpt><trkpt lat="52.0087978989" lon="-1.8808643706"><ele>266.42</ele><time>2012-01-04T11:23:43Z</time></trkpt><trkpt lat="52.0090185106" lon="-1.8808814697"><ele>264.98</ele><time>2012-01-04T11:24:02Z</time></trkpt><trkpt lat="52.0090755913" lon="-1.8808621075"><ele>262.58</ele><time>2012-01-04T11:24:09Z</time></trkpt><trkpt lat="52.0090856496" lon="-1.8808557373"><ele>264.50</ele><time>2012-01-04T11:24:17Z</time></trkpt><trkpt lat="52.0092560537" lon="-1.8808006682"><ele>262.10</ele><time>2012-01-04T11:24:32Z</time></trkpt><trkpt lat="52.0094799343" lon="-1.8807953037"><ele>261.14</ele><time>2012-01-04T11:24:48Z</time></trkpt><trkpt lat="52.0095777512" lon="-1.8807897717"><ele>260.65</ele><time>2012-01-04T11:24:55Z</time></trkpt><trkpt lat="52.0097826887" lon="-1.8808266521"><ele>260.17</ele><time>2012-01-04T11:25:11Z</time></trkpt><trkpt lat="52.0098866243" lon="-1.8808310945"><ele>260.65</ele><time>2012-01-04T11:25:20Z</time></trkpt><trkpt lat="52.0099247620" lon="-1.8808180187"><ele>261.62</ele><time>2012-01-04T11:25:26Z</time></trkpt><trkpt lat="52.0099624805" lon="-1.8808168452"><ele>259.69</ele><time>2012-01-04T11:25:42Z</time></trkpt><trkpt lat="52.0100057311" lon="-1.8808164261"><ele>260.65</ele><time>2012-01-04T11:25:54Z</time></trkpt><trkpt lat="52.0100251772" lon="-1.8808160070"><ele>259.21</ele><time>2012-01-04T11:25:56Z</time></trkpt><trkpt lat="52.0102673303" lon="-1.8808789551"><ele>256.81</ele><time>2012-01-04T11:26:16Z</time></trkpt><trkpt lat="52.0104580186" lon="-1.8809238821"><ele>255.37</ele><time>2012-01-04T11:26:33Z</time></trkpt><trkpt lat="52.0106410794" lon="-1.8809739221"><ele>254.41</ele><time>2012-01-04T11:26:50Z</time></trkpt><trkpt lat="52.0106847491" lon="-1.8809895124"><ele>255.37</ele><time>2012-01-04T11:26:54Z</time></trkpt><trkpt lat="52.0107311849" lon="-1.8809987325"><ele>253.93</ele><time>2012-01-04T11:26:58Z</time></trkpt><trkpt lat="52.0109290816" lon="-1.8810361996"><ele>253.44</ele><time>2012-01-04T11:27:15Z</time></trkpt><trkpt lat="52.0110709872" lon="-1.8810477667"><ele>252.48</ele><time>2012-01-04T11:27:31Z</time></trkpt><trkpt lat="52.0111812931" lon="-1.8810784444"><ele>251.52</ele><time>2012-01-04T11:27:41Z</time></trkpt><trkpt lat="52.0114155672" lon="-1.8811530434"><ele>250.56</ele><time>2012-01-04T11:28:01Z</time></trkpt><trkpt lat="52.0116187446" lon="-1.8812029157"><ele>248.64</ele><time>2012-01-04T11:28:19Z</time></trkpt><trkpt lat="52.0117961895" lon="-1.8812419754"><ele>247.20</ele><time>2012-01-04T11:28:36Z</time></trkpt><trkpt lat="52.0119390171" lon="-1.8812768441"><ele>247.20</ele><time>2012-01-04T11:28:51Z</time></trkpt><trkpt lat="52.0120937470" lon="-1.8813106231"><ele>246.23</ele><time>2012-01-04T11:29:07Z</time></trkpt><trkpt lat="52.0122993551" lon="-1.8813534547"><ele>245.75</ele><time>2012-01-04T11:29:26Z</time></trkpt><trkpt lat="52.0124432724" lon="-1.8813068513"><ele>244.79</ele><time>2012-01-04T11:29:41Z</time></trkpt><trkpt lat="52.0125130098" lon="-1.8813059293"><ele>244.79</ele><time>2012-01-04T11:29:47Z</time></trkpt><trkpt lat="52.0125962421" lon="-1.8813029956"><ele>243.83</ele><time>2012-01-04T11:29:57Z</time></trkpt><trkpt lat="52.0127976593" lon="-1.8813709728"><ele>241.91</ele><time>2012-01-04T11:30:14Z</time></trkpt><trkpt lat="52.0129673090" lon="-1.8813508563"><ele>240.95</ele><time>2012-01-04T11:30:31Z</time></trkpt><trkpt lat="52.0131377969" lon="-1.8813222740"><ele>240.47</ele><time>2012-01-04T11:30:48Z</time></trkpt><trkpt lat="52.0133360289" lon="-1.8812653609"><ele>239.51</ele><time>2012-01-04T11:31:06Z</time></trkpt><trkpt lat="52.0135285612" lon="-1.8812270556"><ele>238.54</ele><time>2012-01-04T11:31:25Z</time></trkpt><trkpt lat="52.0137524419" lon="-1.8811755069"><ele>237.10</ele><time>2012-01-04T11:31:47Z</time></trkpt><trkpt lat="52.0139352512" lon="-1.8811025005"><ele>234.70</ele><time>2012-01-04T11:32:06Z</time></trkpt><trkpt lat="52.0141302980" lon="-1.8810134009"><ele>234.70</ele><time>2012-01-04T11:32:25Z</time></trkpt><trkpt lat="52.0142867882" lon="-1.8809228763"><ele>233.74</ele><time>2012-01-04T11:32:41Z</time></trkpt><trkpt lat="52.0143868681" lon="-1.8808749318"><ele>232.78</ele><time>2012-01-04T11:32:50Z</time></trkpt><trkpt lat="52.0145338029" lon="-1.8807672244"><ele>231.33</ele><time>2012-01-04T11:33:07Z</time></trkpt><trkpt lat="52.0147368964" lon="-1.8806183618"><ele>229.41</ele><time>2012-01-04T11:33:29Z</time></trkpt><trkpt lat="52.0147581026" lon="-1.8806046993"><ele>228.45</ele><time>2012-01-04T11:33:31Z</time></trkpt><trkpt lat="52.0149535686" lon="-1.8804603629"><ele>227.01</ele><time>2012-01-04T11:33:51Z</time></trkpt><trkpt lat="52.0151320193" lon="-1.8802851811"><ele>225.09</ele><time>2012-01-04T11:34:11Z</time></trkpt><trkpt lat="52.0152857434" lon="-1.8801013660"><ele>223.64</ele><time>2012-01-04T11:34:30Z</time></trkpt><trkpt lat="52.0153843146" lon="-1.8799748830"><ele>222.20</ele><time>2012-01-04T11:34:45Z</time></trkpt><trkpt lat="52.0154388808" lon="-1.8798326422"><ele>219.80</ele><time>2012-01-04T11:35:01Z</time></trkpt><trkpt lat="52.0154590812" lon="-1.8797475658"><ele>219.32</ele><time>2012-01-04T11:35:08Z</time></trkpt><trkpt lat="52.0155212749" lon="-1.8796297163"><ele>215.95</ele><time>2012-01-04T11:35:25Z</time></trkpt><trkpt lat="52.0156098716" lon="-1.8793554604"><ele>213.07</ele><time>2012-01-04T11:35:43Z</time></trkpt><trkpt lat="52.0156828780" lon="-1.8792067654"><ele>212.11</ele><time>2012-01-04T11:36:01Z</time></trkpt><trkpt lat="52.0156828780" lon="-1.8792067654"><ele>212.11</ele><time>2012-01-04T11:36:21Z</time></trkpt><trkpt lat="52.0157462452" lon="-1.8791227788"><ele>211.15</ele><time>2012-01-04T11:36:39Z</time></trkpt><trkpt lat="52.0158660226" lon="-1.8788895104"><ele>209.22</ele><time>2012-01-04T11:36:56Z</time></trkpt><trkpt lat="52.0159893204" lon="-1.8786984868"><ele>207.30</ele><time>2012-01-04T11:37:12Z</time></trkpt><trkpt lat="52.0160772465" lon="-1.8785108160"><ele>204.42</ele><time>2012-01-04T11:37:30Z</time></trkpt><trkpt lat="52.0161180664" lon="-1.8784531485"><ele>204.42</ele><time>2012-01-04T11:37:37Z</time></trkpt><trkpt lat="52.0161589701" lon="-1.8783574272"><ele>202.49</ele><time>2012-01-04T11:37:44Z</time></trkpt><trkpt lat="52.0162298810" lon="-1.8781332113"><ele>200.57</ele><time>2012-01-04T11:37:59Z</time></trkpt><trkpt lat="52.0163131133" lon="-1.8779415172"><ele>200.09</ele><time>2012-01-04T11:38:19Z</time></trkpt><trkpt lat="52.0163375884" lon="-1.8778212368"><ele>200.09</ele><time>2012-01-04T11:38:35Z</time></trkpt><trkpt lat="52.0163351577" lon="-1.8778053112"><ele>199.61</ele><time>2012-01-04T11:38:36Z</time></trkpt><trkpt lat="52.0163060725" lon="-1.8775235955"><ele>199.61</ele><time>2012-01-04T11:38:51Z</time></trkpt><trkpt lat="52.0162961818" lon="-1.8773186579"><ele>200.57</ele><time>2012-01-04T11:39:02Z</time></trkpt><trkpt lat="52.0162795857" lon="-1.8771943543"><ele>201.53</ele><time>2012-01-04T11:39:15Z</time></trkpt><trkpt lat="52.0162784960" lon="-1.8771676160"><ele>202.01</ele><time>2012-01-04T11:39:18Z</time></trkpt><trkpt lat="52.0162771549" lon="-1.8770772591"><ele>198.17</ele><time>2012-01-04T11:39:23Z</time></trkpt><trkpt lat="52.0162763167" lon="-1.8770599086"><ele>202.98</ele><time>2012-01-04T11:39:24Z</time></trkpt><trkpt lat="52.0162736345" lon="-1.8770423904"><ele>203.94</ele><time>2012-01-04T11:39:25Z</time></trkpt><trkpt lat="52.0162635762" lon="-1.8767790310"><ele>202.98</ele><time>2012-01-04T11:39:40Z</time></trkpt><trkpt lat="52.0162111893" lon="-1.8764514662"><ele>206.82</ele><time>2012-01-04T11:39:57Z</time></trkpt><trkpt lat="52.0161882229" lon="-1.8761667330"><ele>208.26</ele><time>2012-01-04T11:40:12Z</time></trkpt><trkpt lat="52.0161563717" lon="-1.8759410083"><ele>208.26</ele><time>2012-01-04T11:40:26Z</time></trkpt><trkpt lat="52.0161266159" lon="-1.8756878749"><ele>207.30</ele><time>2012-01-04T11:40:41Z</time></trkpt><trkpt lat="52.0161167253" lon="-1.8755461369"><ele>207.30</ele><time>2012-01-04T11:40:55Z</time></trkpt><trkpt lat="52.0161127858" lon="-1.8754992820"><ele>206.82</ele><time>2012-01-04T11:41:10Z</time></trkpt><trkpt lat="52.0161198266" lon="-1.8754893076"><ele>205.86</ele><time>2012-01-04T11:41:21Z</time></trkpt><trkpt lat="52.0161658432" lon="-1.8754592165"><ele>204.90</ele><time>2012-01-04T11:41:26Z</time></trkpt><trkpt lat="52.0162598882" lon="-1.8754725438"><ele>203.46</ele><time>2012-01-04T11:41:37Z</time></trkpt><trkpt lat="52.0163076650" lon="-1.8754375074"><ele>202.01</ele><time>2012-01-04T11:41:53Z</time></trkpt><trkpt lat="52.0163076650" lon="-1.8754375074"><ele>201.53</ele><time>2012-01-04T11:42:05Z</time></trkpt><trkpt lat="52.0163396839" lon="-1.8753986154"><ele>201.05</ele><time>2012-01-04T11:42:09Z</time></trkpt><trkpt lat="52.0164138637" lon="-1.8753373437"><ele>199.61</ele><time>2012-01-04T11:42:15Z</time></trkpt><trkpt lat="52.0164957549" lon="-1.8752292171"><ele>197.21</ele><time>2012-01-04T11:42:23Z</time></trkpt><trkpt lat="52.0165744610" lon="-1.8750917539"><ele>196.25</ele><time>2012-01-04T11:42:32Z</time></trkpt><trkpt lat="52.0166830067" lon="-1.8749744073"><ele>194.80</ele><time>2012-01-04T11:42:41Z</time></trkpt><trkpt lat="52.0167366508" lon="-1.8747729901"><ele>193.84</ele><time>2012-01-04T11:42:57Z</time></trkpt><trkpt lat="52.0167438593" lon="-1.8747529574"><ele>193.84</ele><time>2012-01-04T11:43:12Z</time></trkpt><trkpt lat="52.0167436078" lon="-1.8747512810"><ele>194.32</ele><time>2012-01-04T11:43:28Z</time></trkpt><trkpt lat="52.0167381596" lon="-1.8747431505"><ele>193.84</ele><time>2012-01-04T11:43:32Z</time></trkpt><trkpt lat="52.0167177077" lon="-1.8747353554"><ele>195.28</ele><time>2012-01-04T11:43:35Z</time></trkpt><trkpt lat="52.0167172886" lon="-1.8747431505"><ele>194.80</ele><time>2012-01-04T11:43:51Z</time></trkpt><trkpt lat="52.0166472998" lon="-1.8746200204"><ele>194.80</ele><time>2012-01-04T11:44:03Z</time></trkpt><trkpt lat="52.0165061485" lon="-1.8743375503"><ele>196.73</ele><time>2012-01-04T11:44:23Z</time></trkpt><trkpt lat="52.0164232515" lon="-1.8742118217"><ele>199.61</ele><time>2012-01-04T11:44:36Z</time></trkpt><trkpt lat="52.0163734630" lon="-1.8741150945"><ele>201.05</ele><time>2012-01-04T11:44:52Z</time></trkpt><trkpt lat="52.0163232554" lon="-1.8739627954"><ele>202.01</ele><time>2012-01-04T11:45:09Z</time></trkpt><trkpt lat="52.0162336528" lon="-1.8737267610"><ele>201.53</ele><time>2012-01-04T11:45:24Z</time></trkpt><trkpt lat="52.0162056573" lon="-1.8735604640"><ele>201.53</ele><time>2012-01-04T11:45:33Z</time></trkpt><trkpt lat="52.0161744766" lon="-1.8733582087"><ele>202.98</ele><time>2012-01-04T11:45:44Z</time></trkpt><trkpt lat="52.0161050744" lon="-1.8731301371"><ele>202.49</ele><time>2012-01-04T11:45:58Z</time></trkpt><trkpt lat="52.0160348341" lon="-1.8728910852"><ele>202.98</ele><time>2012-01-04T11:46:13Z</time></trkpt><trkpt lat="52.0159826986" lon="-1.8726222776"><ele>205.86</ele><time>2012-01-04T11:46:29Z</time></trkpt><trkpt lat="52.0159160625" lon="-1.8723891769"><ele>208.26</ele><time>2012-01-04T11:46:45Z</time></trkpt><trkpt lat="52.0158735663" lon="-1.8722168449"><ele>207.30</ele><time>2012-01-04T11:46:58Z</time></trkpt><trkpt lat="52.0158557128" lon="-1.8721806351"><ele>207.30</ele><time>2012-01-04T11:47:01Z</time></trkpt><trkpt lat="52.0157951117" lon="-1.8719597720"><ele>206.82</ele><time>2012-01-04T11:47:15Z</time></trkpt><trkpt lat="52.0157531183" lon="-1.8717093207"><ele>206.82</ele><time>2012-01-04T11:47:32Z</time></trkpt><trkpt lat="52.0157335047" lon="-1.8715910520"><ele>206.34</ele><time>2012-01-04T11:47:39Z</time></trkpt><trkpt lat="52.0156157389" lon="-1.8713933229"><ele>206.34</ele><time>2012-01-04T11:47:55Z</time></trkpt><trkpt lat="52.0155764278" lon="-1.8713504914"><ele>207.30</ele><time>2012-01-04T11:48:14Z</time></trkpt><trkpt lat="52.0155513659" lon="-1.8712789938"><ele>206.34</ele><time>2012-01-04T11:48:29Z</time></trkpt><trkpt lat="52.0154288225" lon="-1.8712069094"><ele>207.30</ele><time>2012-01-04T11:48:42Z</time></trkpt><trkpt lat="52.0153625216" lon="-1.8711799197"><ele>209.70</ele><time>2012-01-04T11:48:49Z</time></trkpt><trkpt lat="52.0153286587" lon="-1.8711722083"><ele>209.70</ele><time>2012-01-04T11:48:52Z</time></trkpt><trkpt lat="52.0152655430" lon="-1.8712806702"><ele>209.70</ele><time>2012-01-04T11:49:01Z</time></trkpt><trkpt lat="52.0151310973" lon="-1.8715029582"><ele>210.67</ele><time>2012-01-04T11:49:18Z</time></trkpt><trkpt lat="52.0149782952" lon="-1.8716915511"><ele>210.67</ele><time>2012-01-04T11:49:35Z</time></trkpt><trkpt lat="52.0149058755" lon="-1.8718204647"><ele>211.15</ele><time>2012-01-04T11:49:49Z</time></trkpt><trkpt lat="52.0148302708" lon="-1.8719642982"><ele>212.11</ele><time>2012-01-04T11:50:06Z</time></trkpt><trkpt lat="52.0147017762" lon="-1.8720827345"><ele>213.55</ele><time>2012-01-04T11:50:22Z</time></trkpt><trkpt lat="52.0145759638" lon="-1.8722005840"><ele>213.07</ele><time>2012-01-04T11:50:40Z</time></trkpt><trkpt lat="52.0144374110" lon="-1.8722862471"><ele>213.07</ele><time>2012-01-04T11:50:56Z</time></trkpt><trkpt lat="52.0142766461" lon="-1.8723643664"><ele>212.59</ele><time>2012-01-04T11:51:17Z</time></trkpt><trkpt lat="52.0141441282" lon="-1.8723747600"><ele>213.55</ele><time>2012-01-04T11:51:31Z</time></trkpt><trkpt lat="52.0140769891" lon="-1.8724123947"><ele>213.07</ele><time>2012-01-04T11:51:40Z</time></trkpt><trkpt lat="52.0138848759" lon="-1.8724482693"><ele>213.07</ele><time>2012-01-04T11:51:58Z</time></trkpt><trkpt lat="52.0137675293" lon="-1.8724512868"><ele>214.03</ele><time>2012-01-04T11:52:12Z</time></trkpt><trkpt lat="52.0135747455" lon="-1.8725840561"><ele>214.03</ele><time>2012-01-04T11:52:30Z</time></trkpt><trkpt lat="52.0134725701" lon="-1.8726609182"><ele>213.07</ele><time>2012-01-04T11:52:45Z</time></trkpt><trkpt lat="52.0133539662" lon="-1.8727417197"><ele>212.59</ele><time>2012-01-04T11:52:56Z</time></trkpt><trkpt lat="52.0131953806" lon="-1.8728852179"><ele>212.11</ele><time>2012-01-04T11:53:13Z</time></trkpt><trkpt lat="52.0131653734" lon="-1.8729199190"><ele>212.59</ele><time>2012-01-04T11:53:16Z</time></trkpt><trkpt lat="52.0130003337" lon="-1.8730669376"><ele>213.07</ele><time>2012-01-04T11:53:33Z</time></trkpt><trkpt lat="52.0128685702" lon="-1.8731560372"><ele>213.55</ele><time>2012-01-04T11:53:47Z</time></trkpt><trkpt lat="52.0127322804" lon="-1.8731974438"><ele>212.11</ele><time>2012-01-04T11:54:05Z</time></trkpt><trkpt lat="52.0126249082" lon="-1.8732499983"><ele>211.63</ele><time>2012-01-04T11:54:15Z</time></trkpt><trkpt lat="52.0124547556" lon="-1.8733115215"><ele>211.15</ele><time>2012-01-04T11:54:31Z</time></trkpt><trkpt lat="52.0122638997" lon="-1.8733665068"><ele>209.22</ele><time>2012-01-04T11:54:49Z</time></trkpt><trkpt lat="52.0121093374" lon="-1.8734147027"><ele>209.70</ele><time>2012-01-04T11:55:04Z</time></trkpt><trkpt lat="52.0120142028" lon="-1.8734680954"><ele>209.70</ele><time>2012-01-04T11:55:17Z</time></trkpt><trkpt lat="52.0120060723" lon="-1.8734546006"><ele>210.19</ele><time>2012-01-04T11:55:37Z</time></trkpt><trkpt lat="52.0118490793" lon="-1.8734945823"><ele>209.70</ele><time>2012-01-04T11:55:54Z</time></trkpt><trkpt lat="52.0117811859" lon="-1.8734926544"><ele>209.70</ele><time>2012-01-04T11:56:01Z</time></trkpt><trkpt lat="52.0116866380" lon="-1.8735252600"><ele>209.70</ele><time>2012-01-04T11:56:08Z</time></trkpt><trkpt lat="52.0116085187" lon="-1.8735509086"><ele>209.70</ele><time>2012-01-04T11:56:15Z</time></trkpt><trkpt lat="52.0114379469" lon="-1.8735168781"><ele>210.19</ele><time>2012-01-04T11:56:31Z</time></trkpt><trkpt lat="52.0112480968" lon="-1.8736422714"><ele>209.70</ele><time>2012-01-04T11:56:49Z</time></trkpt><trkpt lat="52.0110874996" lon="-1.8737006932"><ele>210.19</ele><time>2012-01-04T11:57:04Z</time></trkpt><trkpt lat="52.0109442528" lon="-1.8737500627"><ele>209.70</ele><time>2012-01-04T11:57:18Z</time></trkpt><trkpt lat="52.0107703283" lon="-1.8738025334"><ele>212.59</ele><time>2012-01-04T11:57:34Z</time></trkpt><trkpt lat="52.0106404927" lon="-1.8738437723"><ele>211.15</ele><time>2012-01-04T11:57:47Z</time></trkpt><trkpt lat="52.0105754491" lon="-1.8738943990"><ele>211.15</ele><time>2012-01-04T11:57:54Z</time></trkpt><trkpt lat="52.0105166081" lon="-1.8739157729"><ele>212.59</ele><time>2012-01-04T11:57:59Z</time></trkpt><trkpt lat="52.0103591122" lon="-1.8739664834"><ele>213.07</ele><time>2012-01-04T11:58:14Z</time></trkpt><trkpt lat="52.0101835113" lon="-1.8739663158"><ele>214.99</ele><time>2012-01-04T11:58:29Z</time></trkpt><trkpt lat="52.0100108441" lon="-1.8739835825"><ele>214.51</ele><time>2012-01-04T11:58:46Z</time></trkpt><trkpt lat="52.0099048130" lon="-1.8739683274"><ele>215.95</ele><time>2012-01-04T11:58:57Z</time></trkpt><trkpt lat="52.0098301303" lon="-1.8739567604"><ele>216.91</ele><time>2012-01-04T11:59:04Z</time></trkpt><trkpt lat="52.0096254442" lon="-1.8739502225"><ele>217.88</ele><time>2012-01-04T11:59:24Z</time></trkpt><trkpt lat="52.0094306488" lon="-1.8739704229"><ele>220.28</ele><time>2012-01-04T11:59:45Z</time></trkpt><trkpt lat="52.0092399605" lon="-1.8739646394"><ele>222.68</ele><time>2012-01-04T12:00:05Z</time></trkpt><trkpt lat="52.0090996474" lon="-1.8739605322"><ele>223.16</ele><time>2012-01-04T12:00:23Z</time></trkpt><trkpt lat="52.0088534709" lon="-1.8738035392"><ele>225.57</ele><time>2012-01-04T12:00:44Z</time></trkpt><trkpt lat="52.0087205339" lon="-1.8737344723"><ele>225.09</ele><time>2012-01-04T12:00:57Z</time></trkpt><trkpt lat="52.0087103918" lon="-1.8737415969"><ele>226.05</ele><time>2012-01-04T12:01:06Z</time></trkpt><trkpt lat="52.0085732639" lon="-1.8736802414"><ele>226.05</ele><time>2012-01-04T12:01:18Z</time></trkpt><trkpt lat="52.0083973277" lon="-1.8735960871"><ele>226.53</ele><time>2012-01-04T12:01:35Z</time></trkpt><trkpt lat="52.0082111657" lon="-1.8735680915"><ele>227.01</ele><time>2012-01-04T12:01:53Z</time></trkpt><trkpt lat="52.0081858523" lon="-1.8735790718"><ele>227.49</ele><time>2012-01-04T12:01:56Z</time></trkpt><trkpt lat="52.0080098324" lon="-1.8735343125"><ele>226.53</ele><time>2012-01-04T12:02:13Z</time></trkpt><trkpt lat="52.0078837685" lon="-1.8735380005"><ele>226.53</ele><time>2012-01-04T12:02:27Z</time></trkpt><trkpt lat="52.0076966844" lon="-1.8735850230"><ele>226.53</ele><time>2012-01-04T12:02:45Z</time></trkpt><trkpt lat="52.0075076725" lon="-1.8736488093"><ele>225.57</ele><time>2012-01-04T12:03:01Z</time></trkpt><trkpt lat="52.0073816925" lon="-1.8737471290"><ele>224.12</ele><time>2012-01-04T12:03:15Z</time></trkpt><trkpt lat="52.0072010625" lon="-1.8738819938"><ele>222.68</ele><time>2012-01-04T12:03:35Z</time></trkpt><trkpt lat="52.0071376953" lon="-1.8739386555"><ele>221.24</ele><time>2012-01-04T12:03:43Z</time></trkpt><trkpt lat="52.0070843026" lon="-1.8739886116"><ele>220.76</ele><time>2012-01-04T12:03:49Z</time></trkpt><trkpt lat="52.0069344342" lon="-1.8741225544"><ele>219.80</ele><time>2012-01-04T12:04:05Z</time></trkpt><trkpt lat="52.0067615993" lon="-1.8742450140"><ele>218.84</ele><time>2012-01-04T12:04:23Z</time></trkpt><trkpt lat="52.0067538042" lon="-1.8742495403"><ele>219.32</ele><time>2012-01-04T12:04:24Z</time></trkpt><trkpt lat="52.0066080429" lon="-1.8743352033"><ele>219.80</ele><time>2012-01-04T12:04:40Z</time></trkpt><trkpt lat="52.0064940490" lon="-1.8744057789"><ele>219.32</ele><time>2012-01-04T12:04:54Z</time></trkpt><trkpt lat="52.0062945597" lon="-1.8744937889"><ele>218.36</ele><time>2012-01-04T12:05:15Z</time></trkpt><trkpt lat="52.0061509777" lon="-1.8745746743"><ele>219.32</ele><time>2012-01-04T12:05:29Z</time></trkpt><trkpt lat="52.0061237365" lon="-1.8745990656"><ele>220.76</ele><time>2012-01-04T12:05:32Z</time></trkpt><trkpt lat="52.0060027018" lon="-1.8747225311"><ele>219.80</ele><time>2012-01-04T12:05:48Z</time></trkpt><trkpt lat="52.0058333036" lon="-1.8748465832"><ele>220.76</ele><time>2012-01-04T12:06:06Z</time></trkpt><trkpt lat="52.0057022106" lon="-1.8749908358"><ele>221.72</ele><time>2012-01-04T12:06:21Z</time></trkpt><trkpt lat="52.0055457205" lon="-1.8750893231"><ele>221.72</ele><time>2012-01-04T12:06:37Z</time></trkpt><trkpt lat="52.0053940080" lon="-1.8751209229"><ele>221.24</ele><time>2012-01-04T12:06:52Z</time></trkpt><trkpt lat="52.0053466503" lon="-1.8751246110"><ele>220.28</ele><time>2012-01-04T12:06:57Z</time></trkpt><trkpt lat="52.0051505975" lon="-1.8750696257"><ele>219.80</ele><time>2012-01-04T12:07:14Z</time></trkpt><trkpt lat="52.0049766731" lon="-1.8749438971"><ele>220.76</ele><time>2012-01-04T12:07:31Z</time></trkpt><trkpt lat="52.0048717316" lon="-1.8748659454"><ele>220.76</ele><time>2012-01-04T12:07:45Z</time></trkpt><trkpt lat="52.0048336778" lon="-1.8748387881"><ele>220.28</ele><time>2012-01-04T12:07:49Z</time></trkpt><trkpt lat="52.0046947896" lon="-1.8747108802"><ele>218.84</ele><time>2012-01-04T12:08:05Z</time></trkpt><trkpt lat="52.0045551471" lon="-1.8746540509"><ele>217.40</ele><time>2012-01-04T12:08:20Z</time></trkpt><trkpt lat="52.0044591743" lon="-1.8745973054"><ele>216.43</ele><time>2012-01-04T12:08:33Z</time></trkpt><trkpt lat="52.0044210367" lon="-1.8745543901"><ele>216.43</ele><time>2012-01-04T12:08:37Z</time></trkpt><trkpt lat="52.0042726770" lon="-1.8743999116"><ele>216.43</ele><time>2012-01-04T12:08:53Z</time></trkpt><trkpt lat="52.0042228885" lon="-1.8743058667"><ele>216.43</ele><time>2012-01-04T12:09:07Z</time></trkpt><trkpt lat="52.0040933881" lon="-1.8741302658"><ele>215.95</ele><time>2012-01-04T12:09:24Z</time></trkpt><trkpt lat="52.0039921347" lon="-1.8739026133"><ele>217.40</ele><time>2012-01-04T12:09:40Z</time></trkpt><trkpt lat="52.0038613770" lon="-1.8736622203"><ele>218.84</ele><time>2012-01-04T12:09:57Z</time></trkpt><trkpt lat="52.0037727803" lon="-1.8734919000"><ele>220.28</ele><time>2012-01-04T12:10:11Z</time></trkpt><trkpt lat="52.0037098322" lon="-1.8733891379"><ele>221.72</ele><time>2012-01-04T12:10:22Z</time></trkpt><trkpt lat="52.0036209840" lon="-1.8732520100"><ele>225.09</ele><time>2012-01-04T12:10:37Z</time></trkpt><trkpt lat="52.0034836885" lon="-1.8730531074"><ele>226.53</ele><time>2012-01-04T12:10:55Z</time></trkpt><trkpt lat="52.0034155436" lon="-1.8729479145"><ele>229.89</ele><time>2012-01-04T12:11:11Z</time></trkpt><trkpt lat="52.0033028908" lon="-1.8728361838"><ele>231.81</ele><time>2012-01-04T12:11:28Z</time></trkpt><trkpt lat="52.0031913277" lon="-1.8727376126"><ele>234.70</ele><time>2012-01-04T12:11:43Z</time></trkpt><trkpt lat="52.0030668564" lon="-1.8726323359"><ele>236.62</ele><time>2012-01-04T12:12:00Z</time></trkpt><trkpt lat="52.0029071812" lon="-1.8725079484"><ele>238.54</ele><time>2012-01-04T12:12:19Z</time></trkpt><trkpt lat="52.0027408004" lon="-1.8723215349"><ele>239.99</ele><time>2012-01-04T12:12:36Z</time></trkpt><trkpt lat="52.0025821310" lon="-1.8720912840"><ele>241.43</ele><time>2012-01-04T12:12:53Z</time></trkpt><trkpt lat="52.0024543069" lon="-1.8719254900"><ele>243.35</ele><time>2012-01-04T12:13:12Z</time></trkpt><trkpt lat="52.0023159217" lon="-1.8718066346"><ele>245.27</ele><time>2012-01-04T12:13:29Z</time></trkpt><trkpt lat="52.0022303425" lon="-1.8717077281"><ele>246.23</ele><time>2012-01-04T12:13:40Z</time></trkpt><trkpt lat="52.0021252334" lon="-1.8715498969"><ele>247.68</ele><time>2012-01-04T12:13:54Z</time></trkpt><trkpt lat="52.0020054560" lon="-1.8713524193"><ele>249.12</ele><time>2012-01-04T12:14:10Z</time></trkpt><trkpt lat="52.0019033644" lon="-1.8712431192"><ele>249.60</ele><time>2012-01-04T12:14:24Z</time></trkpt><trkpt lat="52.0017853472" lon="-1.8710574601"><ele>249.60</ele><time>2012-01-04T12:14:41Z</time></trkpt><trkpt lat="52.0016787294" lon="-1.8708349206"><ele>248.16</ele><time>2012-01-04T12:14:56Z</time></trkpt><trkpt lat="52.0015737880" lon="-1.8706173263"><ele>247.20</ele><time>2012-01-04T12:15:10Z</time></trkpt><trkpt lat="52.0014924835" lon="-1.8704974651"><ele>246.23</ele><time>2012-01-04T12:15:22Z</time></trkpt><trkpt lat="52.0013763942" lon="-1.8703547213"><ele>245.27</ele><time>2012-01-04T12:15:38Z</time></trkpt><trkpt lat="52.0012770686" lon="-1.8702243827"><ele>244.79</ele><time>2012-01-04T12:15:52Z</time></trkpt><trkpt lat="52.0011630747" lon="-1.8700652104"><ele>244.79</ele><time>2012-01-04T12:16:08Z</time></trkpt><trkpt lat="52.0010507572" lon="-1.8698446825"><ele>244.31</ele><time>2012-01-04T12:16:24Z</time></trkpt><trkpt lat="52.0009464864" lon="-1.8696265854"><ele>245.27</ele><time>2012-01-04T12:16:39Z</time></trkpt><trkpt lat="52.0008314028" lon="-1.8693934008"><ele>245.75</ele><time>2012-01-04T12:16:55Z</time></trkpt><trkpt lat="52.0008002222" lon="-1.8693534192"><ele>246.23</ele><time>2012-01-04T12:17:00Z</time></trkpt><trkpt lat="52.0006810315" lon="-1.8691778183"><ele>247.20</ele><time>2012-01-04T12:17:16Z</time></trkpt><trkpt lat="52.0006029960" lon="-1.8691211566"><ele>247.68</ele><time>2012-01-04T12:17:29Z</time></trkpt><trkpt lat="52.0005786046" lon="-1.8690385949"><ele>247.20</ele><time>2012-01-04T12:17:49Z</time></trkpt><trkpt lat="52.0005498547" lon="-1.8690080009"><ele>247.20</ele><time>2012-01-04T12:18:05Z</time></trkpt><trkpt lat="52.0005027484" lon="-1.8689869624"><ele>246.72</ele><time>2012-01-04T12:18:09Z</time></trkpt><trkpt lat="52.0003641117" lon="-1.8689081725"><ele>247.20</ele><time>2012-01-04T12:18:22Z</time></trkpt><trkpt lat="52.0002864115" lon="-1.8688564561"><ele>246.72</ele><time>2012-01-04T12:18:28Z</time></trkpt><trkpt lat="52.0002176799" lon="-1.8687717989"><ele>245.75</ele><time>2012-01-04T12:18:46Z</time></trkpt><trkpt lat="52.0002176799" lon="-1.8687717989"><ele>245.75</ele><time>2012-01-04T12:19:03Z</time></trkpt><trkpt lat="52.0002100524" lon="-1.8686827831"><ele>244.79</ele><time>2012-01-04T12:19:11Z</time></trkpt><trkpt lat="52.0002061129" lon="-1.8679081276"><ele>240.95</ele><time>2012-01-04T12:19:34Z</time></trkpt><trkpt lat="52.0002752636" lon="-1.8675366417"><ele>239.51</ele><time>2012-01-04T12:19:52Z</time></trkpt><trkpt lat="52.0003100485" lon="-1.8674664851"><ele>239.02</ele><time>2012-01-04T12:19:59Z</time></trkpt><trkpt lat="52.0003272314" lon="-1.8674234860"><ele>238.06</ele><time>2012-01-04T12:20:02Z</time></trkpt><trkpt lat="52.0004320890" lon="-1.8670890480"><ele>236.14</ele><time>2012-01-04T12:20:20Z</time></trkpt><trkpt lat="52.0005134773" lon="-1.8667890597"><ele>235.66</ele><time>2012-01-04T12:20:40Z</time></trkpt><trkpt lat="52.0005796943" lon="-1.8664270453"><ele>235.18</ele><time>2012-01-04T12:21:01Z</time></trkpt><trkpt lat="52.0006240346" lon="-1.8661112152"><ele>235.18</ele><time>2012-01-04T12:21:19Z</time></trkpt><trkpt lat="52.0006523654" lon="-1.8657969777"><ele>236.62</ele><time>2012-01-04T12:21:39Z</time></trkpt><trkpt lat="52.0006995555" lon="-1.8654215522"><ele>238.06</ele><time>2012-01-04T12:22:01Z</time></trkpt><trkpt lat="52.0007196721" lon="-1.8652861007"><ele>238.06</ele><time>2012-01-04T12:22:17Z</time></trkpt><trkpt lat="52.0007196721" lon="-1.8652861007"><ele>237.58</ele><time>2012-01-04T12:22:37Z</time></trkpt><trkpt lat="52.0008294750" lon="-1.8649616372"><ele>235.18</ele><time>2012-01-04T12:22:55Z</time></trkpt><trkpt lat="52.0009241905" lon="-1.8647147901"><ele>232.30</ele><time>2012-01-04T12:23:11Z</time></trkpt><trkpt lat="52.0010401960" lon="-1.8645158038"><ele>229.41</ele><time>2012-01-04T12:23:27Z</time></trkpt><trkpt lat="52.0011528488" lon="-1.8643340841"><ele>227.49</ele><time>2012-01-04T12:23:42Z</time></trkpt><trkpt lat="52.0012656692" lon="-1.8640392087"><ele>225.09</ele><time>2012-01-04T12:24:02Z</time></trkpt><trkpt lat="52.0013425313" lon="-1.8637082912"><ele>222.68</ele><time>2012-01-04T12:24:21Z</time></trkpt><trkpt lat="52.0013321377" lon="-1.8634212110"><ele>221.72</ele><time>2012-01-04T12:24:38Z</time></trkpt><trkpt lat="52.0013288688" lon="-1.8630659860"><ele>220.28</ele><time>2012-01-04T12:24:56Z</time></trkpt><trkpt lat="52.0013943315" lon="-1.8627753016"><ele>220.28</ele><time>2012-01-04T12:25:07Z</time></trkpt><trkpt lat="52.0014699362" lon="-1.8623818550"><ele>219.32</ele><time>2012-01-04T12:25:24Z</time></trkpt><trkpt lat="52.0015129354" lon="-1.8622961082"><ele>219.32</ele><time>2012-01-04T12:25:31Z</time></trkpt><trkpt lat="52.0015331358" lon="-1.8622549530"><ele>219.80</ele><time>2012-01-04T12:25:34Z</time></trkpt><trkpt lat="52.0015470497" lon="-1.8621878140"><ele>219.80</ele><time>2012-01-04T12:25:38Z</time></trkpt><trkpt lat="52.0015911385" lon="-1.8619225267"><ele>220.28</ele><time>2012-01-04T12:25:54Z</time></trkpt><trkpt lat="52.0016072318" lon="-1.8617507815"><ele>220.76</ele><time>2012-01-04T12:26:04Z</time></trkpt><trkpt lat="52.0016113389" lon="-1.8615942076"><ele>222.20</ele><time>2012-01-04T12:26:14Z</time></trkpt><trkpt lat="52.0016381610" lon="-1.8614168465"><ele>222.68</ele><time>2012-01-04T12:26:23Z</time></trkpt><trkpt lat="52.0017598663" lon="-1.8611549959"><ele>222.68</ele><time>2012-01-04T12:26:40Z</time></trkpt><trkpt lat="52.0018586889" lon="-1.8609827477"><ele>222.68</ele><time>2012-01-04T12:26:55Z</time></trkpt><trkpt lat="52.0019953139" lon="-1.8609165307"><ele>222.20</ele><time>2012-01-04T12:27:09Z</time></trkpt><trkpt lat="52.0020900294" lon="-1.8609772157"><ele>221.24</ele><time>2012-01-04T12:27:21Z</time></trkpt><trkpt lat="52.0021051168" lon="-1.8609773833"><ele>220.28</ele><time>2012-01-04T12:27:23Z</time></trkpt><trkpt lat="52.0021217130" lon="-1.8610335421"><ele>219.80</ele><time>2012-01-04T12:27:26Z</time></trkpt><trkpt lat="52.0022160932" lon="-1.8611461949"><ele>219.32</ele><time>2012-01-04T12:27:41Z</time></trkpt><trkpt lat="52.0022265706" lon="-1.8611437641"><ele>218.84</ele><time>2012-01-04T12:27:56Z</time></trkpt><trkpt lat="52.0022264030" lon="-1.8611426745"><ele>219.32</ele><time>2012-01-04T12:27:57Z</time></trkpt></trkseg></trk></gpx>